Time;durP1;ratioP1;P1;durP2;ratioP2;P2;SDS_P1;SDS_P2;PMS_P1;PMS_P2;Temp;Humidity;BMP_temperature;BMP_pressure;BME280_temperature;BME280_humidity;BME280_pressure;Samples;Min_cycle;Max_cycle;Signal;HPM_P1;HPM_P2
2023/05/23 00:02:12;;;;;;;116.97;60.22;;;15.10;99.90;;;;;;5033218;28;20030;-85
2023/05/23 00:04:38;;;;;;;112.93;59.13;;;15.10;99.90;;;;;;5033011;28;20133;-84
2023/05/23 00:07:04;;;;;;;129.15;64.55;;;15.00;99.90;;;;;;5049549;28;20063;-85
2023/05/23 00:09:30;;;;;;;123.07;64.22;;;15.00;99.90;;;;;;5022430;28;20515;-85
2023/05/23 00:11:56;;;;;;;114.93;60.58;;;15.00;99.90;;;;;;5045443;28;20040;-84
2023/05/23 00:14:22;;;;;;;122.18;61.78;;;14.90;99.90;;;;;;5020814;28;20554;-85
2023/05/23 00:16:48;;;;;;;100.82;56.95;;;14.80;99.90;;;;;;5029886;28;20022;-85
2023/05/23 00:19:15;;;;;;;115.22;54.83;;;14.80;99.90;;;;;;5030550;28;20184;-85
2023/05/23 00:21:42;;;;;;;121.43;58.83;;;14.80;99.90;;;;;;5030217;28;20057;-85
2023/05/23 00:24:09;;;;;;;125.38;60.90;;;14.80;99.90;;;;;;5030146;28;20048;-85
2023/05/23 00:26:35;;;;;;;125.72;59.45;;;14.80;99.90;;;;;;5031107;28;20365;-85
2023/05/23 00:29:01;;;;;;;133.00;64.72;;;14.80;99.90;;;;;;5026818;28;20030;-82
2023/05/23 00:31:36;;;;;;;122.28;61.85;;;14.90;99.90;;;;;;5015669;28;20531;-83
2023/05/23 00:34:01;;;;;;;132.20;64.85;;;14.90;99.90;;;;;;5032092;28;20036;-83
2023/05/23 00:36:27;;;;;;;138.98;68.50;;;14.90;99.90;;;;;;5021208;28;20081;-83
2023/05/23 00:38:53;;;;;;;134.63;71.57;;;14.90;99.90;;;;;;5027711;28;20022;-84
2023/05/23 00:41:37;;;;;;;147.70;74.53;;;15.00;99.90;;;;;;5030362;28;20033;-84
2023/05/23 00:44:04;;;;;;;145.75;74.35;;;15.00;99.90;;;;;;5029401;28;20092;-83
2023/05/23 00:46:30;;;;;;;141.73;69.15;;;15.10;99.90;;;;;;5045704;28;20026;-83
2023/05/23 00:48:56;;;;;;;141.35;69.03;;;15.00;99.90;;;;;;5028700;28;20033;-83
2023/05/23 00:51:35;;;;;;;141.95;71.72;;;15.00;99.90;;;;;;5013136;28;20038;-84
2023/05/23 00:54:03;;;;;;;146.70;72.13;;;15.00;99.90;;;;;;5022678;28;20026;-83
2023/05/23 00:56:29;;;;;;;142.48;70.70;;;15.00;99.90;;;;;;5040324;28;20073;-83
2023/05/23 00:59:15;;;;;;;149.52;73.50;;;15.00;99.90;;;;;;5022837;28;20018;-84
2023/05/23 01:01:45;;;;;;;154.23;75.55;;;15.00;99.90;;;;;;5057482;28;20035;-84
2023/05/23 01:04:18;;;;;;;167.70;82.05;;;14.90;99.90;;;;;;5015188;28;20448;-83
2023/05/23 01:06:45;;;;;;;166.90;81.70;;;14.90;99.90;;;;;;5021130;28;20473;-83
2023/05/23 01:09:19;;;;;;;176.90;84.00;;;14.90;99.90;;;;;;5030556;28;20053;-84
2023/05/23 01:12:10;;;;;;;174.07;83.22;;;14.90;99.90;;;;;;5021075;28;20054;-83
2023/05/23 01:14:49;;;;;;;181.48;85.47;;;14.80;99.90;;;;;;5008537;28;20107;-83
2023/05/23 01:17:40;;;;;;;177.80;81.57;;;14.80;99.90;;;;;;5029017;28;20022;-83
2023/05/23 01:20:15;;;;;;;182.07;87.60;;;14.70;99.90;;;;;;5015267;28;20029;-83
2023/05/23 01:22:59;;;;;;;198.88;93.05;;;14.70;99.90;;;;;;5030984;28;20172;-84
2023/05/23 01:25:48;;;;;;;188.48;87.32;;;14.70;99.90;;;;;;5032834;28;20143;-83
2023/05/23 01:28:21;;;;;;;196.73;90.18;;;14.60;99.90;;;;;;5025205;28;20038;-83
2023/05/23 01:30:50;;;;;;;186.00;89.28;;;14.60;99.90;;;;;;5024482;28;20508;-83
2023/05/23 01:33:19;;;;;;;182.10;87.30;;;14.60;99.90;;;;;;5024777;28;20037;-83
2023/05/23 01:35:45;;;;;;;191.98;88.80;;;14.60;99.90;;;;;;5042484;28;20469;-83
2023/05/23 01:38:11;;;;;;;201.80;93.57;;;14.60;99.90;;;;;;5035399;28;20416;-83
2023/05/23 01:40:38;;;;;;;198.77;90.63;;;14.60;99.90;;;;;;5017236;28;20022;-83
2023/05/23 01:43:04;;;;;;;196.00;89.07;;;14.50;99.90;;;;;;5033305;28;20044;-84
2023/05/23 01:45:30;;;;;;;198.20;90.15;;;14.40;99.90;;;;;;5017290;28;20014;-84
2023/05/23 01:47:57;;;;;;;206.63;90.85;;;14.40;99.90;;;;;;5022168;28;20483;-83
2023/05/23 01:50:23;;;;;;;199.45;90.65;;;14.40;99.90;;;;;;5033817;28;20116;-83
2023/05/23 01:53:02;;;;;;;189.38;88.70;;;14.40;99.90;;;;;;5030863;28;20037;-83
2023/05/23 01:55:28;;;;;;;194.23;89.50;;;14.40;99.90;;;;;;5018219;28;20022;-84
2023/05/23 01:58:05;;;;;;;201.68;90.75;;;14.40;99.90;;;;;;5040474;28;20036;-83
2023/05/23 02:00:31;;;;;;;191.55;87.22;;;14.40;99.90;;;;;;5026907;28;20036;-84
2023/05/23 02:02:56;;;;;;;194.95;89.40;;;14.40;99.90;;;;;;5023744;28;20117;-83
2023/05/23 02:05:22;;;;;;;202.90;93.30;;;14.30;99.90;;;;;;5032696;28;20029;-83
2023/05/23 02:07:48;;;;;;;208.75;93.20;;;14.30;99.90;;;;;;5023362;28;20049;-83
2023/05/23 02:10:18;;;;;;;218.02;90.30;;;14.20;99.90;;;;;;5024840;28;20022;-83
2023/05/23 02:12:43;;;;;;;205.10;93.60;;;14.30;99.90;;;;;;5042232;28;20030;-84
2023/05/23 02:15:09;;;;;;;201.55;91.10;;;14.20;99.90;;;;;;5034951;28;20058;-83
2023/05/23 02:17:35;;;;;;;221.20;94.60;;;14.20;99.90;;;;;;5023602;28;20029;-83
2023/05/23 02:20:01;;;;;;;208.55;91.75;;;14.10;99.90;;;;;;5020875;28;20759;-83
2023/05/23 02:22:27;;;;;;;222.68;94.80;;;14.10;99.90;;;;;;5040413;28;20033;-83
2023/05/23 02:24:52;;;;;;;223.65;97.07;;;14.10;99.90;;;;;;5021302;28;20406;-83
2023/05/23 02:27:18;;;;;;;236.30;98.40;;;14.20;99.90;;;;;;5021559;28;20029;-83
2023/05/23 02:29:44;;;;;;;226.40;101.28;;;14.20;99.90;;;;;;5031583;28;20034;-83
2023/05/23 02:32:10;;;;;;;220.60;97.75;;;14.30;99.90;;;;;;5031181;28;20592;-83
2023/05/23 02:34:37;;;;;;;225.30;99.10;;;14.40;99.90;;;;;;5031126;28;20439;-83
2023/05/23 02:37:03;;;;;;;212.50;96.05;;;14.40;99.90;;;;;;5028078;28;20120;-83
2023/05/23 02:39:29;;;;;;;213.70;95.85;;;14.40;99.90;;;;;;5041140;28;20025;-83
2023/05/23 02:41:55;;;;;;;214.40;95.95;;;14.50;99.90;;;;;;5033929;28;20392;-83
2023/05/23 02:44:20;;;;;;;213.48;96.07;;;14.50;99.90;;;;;;5034645;28;20476;-83
2023/05/23 02:46:46;;;;;;;209.88;95.88;;;14.40;99.90;;;;;;5034478;28;20021;-83
2023/05/23 02:49:12;;;;;;;221.07;97.65;;;14.40;99.90;;;;;;5035738;28;20026;-83
2023/05/23 02:51:38;;;;;;;207.80;93.20;;;14.40;99.90;;;;;;5022111;28;20075;-83
2023/05/23 02:54:03;;;;;;;209.15;91.13;;;14.40;99.90;;;;;;5038405;28;20389;-83
2023/05/23 02:56:33;;;;;;;215.10;96.95;;;14.30;99.90;;;;;;5023016;28;20488;-83
2023/05/23 02:58:59;;;;;;;202.73;91.38;;;14.30;99.90;;;;;;5022763;28;20029;-83
2023/05/23 03:01:25;;;;;;;212.48;95.60;;;14.30;99.90;;;;;;5022973;28;20029;-83
2023/05/23 03:03:50;;;;;;;211.88;93.28;;;14.30;99.90;;;;;;5028701;28;20128;-83
2023/05/23 03:06:16;;;;;;;204.35;92.35;;;14.30;99.90;;;;;;5033773;28;20029;-83
2023/05/23 03:08:42;;;;;;;220.50;97.82;;;14.40;99.90;;;;;;5023277;28;20404;-83
2023/05/23 03:11:15;;;;;;;207.93;94.90;;;14.40;99.90;;;;;;5014954;28;20036;-84
2023/05/23 03:13:43;;;;;;;203.13;93.90;;;14.50;99.90;;;;;;5027164;28;20025;-82
2023/05/23 03:16:08;;;;;;;220.68;99.22;;;14.40;99.90;;;;;;5034599;28;20022;-83
2023/05/23 03:18:34;;;;;;;205.90;93.75;;;14.40;99.90;;;;;;5030443;28;20373;-83
2023/05/23 03:21:01;;;;;;;207.52;95.63;;;14.40;99.90;;;;;;5021961;28;20121;-83
2023/05/23 03:23:26;;;;;;;206.93;96.57;;;14.40;99.90;;;;;;5033110;28;20501;-83
2023/05/23 03:25:52;;;;;;;195.65;91.38;;;14.40;99.90;;;;;;5023385;28;20040;-84
2023/05/23 03:28:36;;;;;;;195.02;93.65;;;14.50;99.90;;;;;;5032949;28;20033;-84
2023/05/23 03:31:02;;;;;;;198.02;92.30;;;14.50;99.90;;;;;;5014874;28;20457;-83
2023/05/23 03:33:28;;;;;;;181.38;91.63;;;14.60;99.90;;;;;;5025106;28;20026;-82
2023/05/23 03:35:56;;;;;;;187.63;91.15;;;14.70;99.90;;;;;;5043739;28;20492;-81
2023/05/23 03:38:21;;;;;;;188.93;89.95;;;14.70;99.90;;;;;;5022504;28;20536;-81
2023/05/23 03:40:47;;;;;;;175.88;85.90;;;14.60;99.90;;;;;;5043852;28;20026;-80
2023/05/23 03:43:14;;;;;;;165.27;83.25;;;14.70;99.90;;;;;;5021761;28;20029;-81
2023/05/23 03:45:41;;;;;;;162.65;83.10;;;14.70;99.90;;;;;;5020226;28;20033;-81
2023/05/23 03:48:11;;;;;;;157.93;80.38;;;14.70;99.90;;;;;;5021634;28;20034;-81
2023/05/23 03:50:38;;;;;;;157.98;80.45;;;14.70;99.90;;;;;;5037574;28;20026;-83
2023/05/23 03:53:04;;;;;;;161.65;79.85;;;14.70;99.90;;;;;;5030653;28;20588;-81
2023/05/23 03:55:31;;;;;;;149.07;80.20;;;14.70;99.90;;;;;;5035905;28;20025;-81
2023/05/23 03:57:57;;;;;;;145.82;80.00;;;14.70;99.90;;;;;;5014986;28;20050;-81
2023/05/23 04:00:22;;;;;;;154.05;78.55;;;14.70;99.90;;;;;;5030368;28;20405;-80
2023/05/23 04:02:50;;;;;;;133.77;74.43;;;14.70;99.90;;;;;;5024692;28;20116;-80
2023/05/23 04:05:18;;;;;;;136.57;76.07;;;14.70;99.90;;;;;;5039027;28;20036;-80
2023/05/23 04:07:44;;;;;;;141.43;77.22;;;14.70;99.90;;;;;;5016194;28;20053;-81
2023/05/23 04:10:11;;;;;;;135.55;75.20;;;14.60;99.90;;;;;;5032384;28;20038;-81
2023/05/23 04:12:40;;;;;;;145.35;76.55;;;14.60;99.90;;;;;;5022867;28;20026;-81
2023/05/23 04:15:11;;;;;;;132.25;74.68;;;14.60;99.90;;;;;;5032690;28;20037;-81
2023/05/23 04:17:46;;;;;;;139.93;75.00;;;14.60;99.90;;;;;;5021380;28;20025;-81
2023/05/23 04:20:12;;;;;;;138.98;75.15;;;14.50;99.90;;;;;;5032058;28;20036;-81
2023/05/23 04:23:15;;;;;;;143.50;77.35;;;14.50;99.90;;;;;;5042837;28;20037;-81
2023/05/23 04:26:10;;;;;;;148.45;77.50;;;14.40;99.90;;;;;;5020873;28;20727;-81
2023/05/23 04:28:53;;;;;;;143.80;76.15;;;14.40;99.90;;;;;;5009595;28;20029;-81
2023/05/23 04:31:21;;;;;;;142.43;76.32;;;14.40;99.90;;;;;;5037270;28;20121;-81
2023/05/23 04:33:47;;;;;;;136.18;73.90;;;14.40;99.90;;;;;;5031202;28;20397;-81
2023/05/23 04:36:15;;;;;;;137.32;72.70;;;14.50;99.90;;;;;;5017290;28;20052;-81
2023/05/23 04:38:45;;;;;;;126.67;73.20;;;14.40;99.90;;;;;;5020675;28;20017;-81
2023/05/23 04:41:10;;;;;;;130.77;74.35;;;14.50;99.90;;;;;;5019045;28;20033;-81
2023/05/23 04:43:53;;;;;;;129.45;74.57;;;14.50;99.90;;;;;;5018775;28;20060;-81
2023/05/23 04:46:25;;;;;;;122.47;68.72;;;14.50;99.90;;;;;;5021247;28;20080;-81
2023/05/23 04:49:03;;;;;;;131.88;72.32;;;14.40;99.90;;;;;;5034246;28;20025;-82
2023/05/23 04:51:29;;;;;;;123.78;70.78;;;14.40;99.90;;;;;;5019965;28;20121;-81
2023/05/23 04:54:01;;;;;;;121.70;69.57;;;14.50;99.90;;;;;;5021025;28;20032;-81
2023/05/23 04:56:27;;;;;;;120.93;66.95;;;14.60;99.90;;;;;;5026417;28;20485;-82
2023/05/23 04:58:54;;;;;;;115.45;65.35;;;14.60;99.90;;;;;;5025761;28;20538;-80
2023/05/23 05:01:24;;;;;;;108.03;65.43;;;14.70;99.90;;;;;;5021889;28;20041;-81
2023/05/23 05:04:12;;;;;;;106.55;63.80;;;14.80;99.90;;;;;;5019915;28;20185;-81
2023/05/23 05:06:40;;;;;;;106.63;60.30;;;14.90;99.90;;;;;;5022749;28;20030;-81
2023/05/23 05:09:07;;;;;;;98.55;59.25;;;14.90;99.90;;;;;;5019835;28;20041;-82
2023/05/23 05:11:34;;;;;;;93.63;56.78;;;14.90;99.90;;;;;;5029528;28;20061;-81
2023/05/23 05:14:00;;;;;;;96.28;56.50;;;15.00;99.90;;;;;;5024602;28;20072;-81
2023/05/23 05:16:25;;;;;;;87.88;55.58;;;15.10;99.90;;;;;;5030310;28;20030;-81
2023/05/23 05:18:57;;;;;;;93.32;55.15;;;15.10;99.90;;;;;;5028381;28;20533;-81
2023/05/23 05:25:11;;;;;;;83.53;51.60;;;15.20;99.90;;;;;;5018832;28;20524;-82
2023/05/23 05:27:38;;;;;;;78.18;49.58;;;15.10;99.90;;;;;;5019464;28;20034;-82
2023/05/23 05:30:08;;;;;;;84.80;51.22;;;15.00;99.90;;;;;;5040021;28;20060;-82
2023/05/23 05:32:45;;;;;;;81.25;49.65;;;15.00;99.90;;;;;;5038394;28;20052;-82
2023/05/23 05:35:12;;;;;;;78.75;50.65;;;14.90;99.90;;;;;;5041738;28;20545;-82
2023/05/23 05:37:45;;;;;;;80.85;49.92;;;15.00;99.90;;;;;;5040182;28;20517;-82
2023/05/23 05:40:12;;;;;;;72.63;47.35;;;15.20;99.90;;;;;;5040974;28;20056;-82
2023/05/23 05:42:41;;;;;;;68.57;45.45;;;15.50;99.90;;;;;;5022172;28;20537;-83
2023/05/23 05:45:10;;;;;;;69.07;44.15;;;15.70;99.90;;;;;;5026001;28;20029;-82
2023/05/23 05:47:37;;;;;;;72.38;44.75;;;15.70;99.90;;;;;;5022517;28;20376;-82
2023/05/23 05:50:05;;;;;;;61.45;42.00;;;15.70;99.90;;;;;;5025487;28;20481;-82
2023/05/23 05:52:33;;;;;;;53.92;39.63;;;15.90;99.90;;;;;;5027918;28;20030;-82
2023/05/23 05:55:01;;;;;;;56.00;35.67;;;15.90;99.90;;;;;;5022843;28;20035;-82
2023/05/23 05:57:27;;;;;;;53.05;34.28;;;16.00;99.90;;;;;;5017880;28;20107;-82
2023/05/23 05:59:53;;;;;;;52.47;31.60;;;15.90;99.90;;;;;;5021788;28;20469;-82
2023/05/23 06:02:20;;;;;;;44.72;31.48;;;15.70;99.90;;;;;;5022462;28;20030;-81
2023/05/23 06:04:45;;;;;;;45.35;32.60;;;15.50;99.90;;;;;;5016783;28;20045;-81
2023/05/23 06:07:11;;;;;;;42.22;29.85;;;15.30;99.90;;;;;;5022949;28;20028;-82
2023/05/23 06:09:37;;;;;;;41.63;29.63;;;15.20;99.90;;;;;;5044378;28;20037;-82
2023/05/23 06:12:03;;;;;;;39.53;28.60;;;15.10;99.90;;;;;;5032034;28;20033;-82
2023/05/23 06:14:29;;;;;;;45.05;29.55;;;15.00;99.90;;;;;;5041345;28;20378;-82
2023/05/23 06:16:55;;;;;;;42.80;29.33;;;14.90;99.90;;;;;;5028564;28;20044;-82
2023/05/23 06:19:21;;;;;;;46.25;29.35;;;15.00;99.90;;;;;;5020829;28;20501;-82
2023/05/23 06:21:47;;;;;;;43.38;27.55;;;15.10;99.90;;;;;;5031600;28;20029;-82
2023/05/23 06:24:14;;;;;;;41.50;26.90;;;15.10;99.90;;;;;;5049828;28;20083;-82
2023/05/23 06:26:40;;;;;;;38.70;26.77;;;15.20;99.90;;;;;;5017907;28;20508;-82
2023/05/23 06:29:07;;;;;;;39.00;27.77;;;15.20;99.90;;;;;;5031066;28;20087;-82
2023/05/23 06:31:34;;;;;;;38.78;27.20;;;15.30;99.90;;;;;;5037092;28;20045;-82
2023/05/23 06:34:00;;;;;;;40.20;28.38;;;15.20;99.90;;;;;;5011808;28;20461;-82
2023/05/23 06:36:26;;;;;;;43.60;28.50;;;15.30;99.90;;;;;;5041963;28;20128;-82
2023/05/23 06:38:52;;;;;;;41.22;28.20;;;15.20;99.90;;;;;;5036652;28;20018;-82
2023/05/23 06:41:17;;;;;;;41.42;28.77;;;15.20;99.90;;;;;;5049808;28;20029;-82
2023/05/23 06:43:43;;;;;;;43.25;29.40;;;15.00;99.90;;;;;;5022872;28;20048;-82
2023/05/23 06:46:14;;;;;;;50.90;30.33;;;14.70;99.90;;;;;;5020563;28;20113;-82
2023/05/23 06:48:39;;;;;;;47.05;31.00;;;14.50;99.90;;;;;;5035760;28;20388;-83
2023/05/23 06:51:05;;;;;;;48.90;31.45;;;14.40;99.90;;;;;;5030006;28;20041;-82
2023/05/23 06:53:31;;;;;;;47.42;31.77;;;14.50;99.90;;;;;;5006997;28;20030;-82
2023/05/23 06:55:57;;;;;;;47.90;31.38;;;14.60;99.90;;;;;;5028529;28;20072;-82
2023/05/23 06:58:25;;;;;;;41.20;30.52;;;14.60;99.90;;;;;;5026798;28;20495;-82
2023/05/23 07:00:52;;;;;;;48.58;31.08;;;14.60;99.90;;;;;;5023395;28;20531;-82
2023/05/23 07:03:27;;;;;;;45.50;31.25;;;14.60;99.90;;;;;;5024900;28;20105;-83
2023/05/23 07:05:57;;;;;;;50.78;32.47;;;14.60;99.90;;;;;;5030562;28;20017;-82
2023/05/23 07:08:24;;;;;;;48.22;33.72;;;14.40;99.90;;;;;;5032360;28;20029;-82
2023/05/23 07:10:57;;;;;;;56.83;34.42;;;14.30;99.90;;;;;;5023442;28;20385;-82
2023/05/23 07:13:43;;;;;;;46.47;32.42;;;14.10;99.90;;;;;;5030533;28;20034;-82
2023/05/23 07:16:14;;;;;;;45.45;31.90;;;14.20;99.90;;;;;;5027163;28;20040;-82
2023/05/23 07:18:51;;;;;;;52.67;34.10;;;14.30;99.90;;;;;;5027992;28;20022;-82
2023/05/23 07:21:17;;;;;;;49.45;33.78;;;14.30;99.90;;;;;;5000289;28;20073;-82
2023/05/23 07:23:44;;;;;;;54.67;33.33;;;14.30;99.90;;;;;;5030205;28;20032;-81
2023/05/23 07:26:11;;;;;;;51.30;32.72;;;14.30;99.90;;;;;;5042162;28;20026;-82
2023/05/23 07:28:43;;;;;;;56.47;34.00;;;14.10;99.90;;;;;;5026014;28;21079;-82
2023/05/23 07:31:10;;;;;;;57.25;33.67;;;14.10;99.90;;;;;;5007168;28;20032;-81
2023/05/23 07:33:37;;;;;;;51.28;33.42;;;14.00;99.90;;;;;;5022769;28;20017;-82
2023/05/23 07:36:04;;;;;;;51.45;33.75;;;14.00;99.90;;;;;;5026906;28;20030;-82
2023/05/23 07:38:30;;;;;;;46.00;30.42;;;14.00;99.90;;;;;;5028274;28;20037;-81
2023/05/23 07:40:55;;;;;;;51.25;32.25;;;14.00;99.90;;;;;;5025539;28;20147;-81
2023/05/23 07:43:21;;;;;;;48.70;30.98;;;14.00;99.90;;;;;;5040052;28;20022;-81
2023/05/23 07:45:47;;;;;;;47.60;31.25;;;14.10;99.90;;;;;;5029672;28;20037;-81
2023/05/23 07:48:13;;;;;;;48.95;30.38;;;14.10;99.90;;;;;;5026508;28;20457;-83
2023/05/23 07:50:39;;;;;;;45.10;30.60;;;14.20;99.90;;;;;;5027469;28;20048;-81
2023/05/23 07:53:07;;;;;;;44.47;29.40;;;14.40;99.90;;;;;;5027480;28;20084;-82
2023/05/23 07:55:33;;;;;;;43.08;30.08;;;14.50;99.90;;;;;;5029700;28;20029;-82
2023/05/23 07:58:00;;;;;;;42.60;29.58;;;14.70;99.90;;;;;;5019709;28;20067;-82
2023/05/23 08:00:26;;;;;;;44.08;28.65;;;14.70;99.90;;;;;;5015364;28;20116;-82
2023/05/23 08:03:00;;;;;;;;;;;14.90;99.90;;;;;;5047866;28;20033;-82
2023/05/23 08:05:32;;;;;;;43.38;29.58;;;14.90;99.90;;;;;;5021014;28;20652;-81
2023/05/23 08:07:58;;;;;;;48.97;29.17;;;14.80;99.90;;;;;;5025093;28;20033;-82
2023/05/23 08:10:27;;;;;;;42.95;28.23;;;14.70;99.90;;;;;;5026290;28;20042;-82
2023/05/23 08:12:55;;;;;;;36.05;24.60;;;14.50;99.90;;;;;;5039266;28;20026;-82
2023/05/23 08:15:23;;;;;;;33.97;24.45;;;14.60;99.90;;;;;;5030660;28;20601;-80
2023/05/23 08:17:55;;;;;;;33.40;23.98;;;14.60;99.90;;;;;;5038630;28;20485;-81
2023/05/23 08:20:29;;;;;;;37.67;24.23;;;14.80;99.90;;;;;;5027992;28;20065;-81
2023/05/23 08:22:57;;;;;;;32.63;21.65;;;15.10;99.90;;;;;;5026793;28;20041;-81
2023/05/23 08:25:23;;;;;;;26.08;19.33;;;15.50;99.90;;;;;;5020215;28;20362;-81
2023/05/23 08:27:50;;;;;;;23.90;17.35;;;16.10;99.90;;;;;;5019904;28;20391;-81
2023/05/23 08:30:36;;;;;;;23.15;16.88;;;16.60;99.90;;;;;;5028694;28;20504;-81
2023/05/23 08:33:03;;;;;;;21.33;16.08;;;17.10;99.90;;;;;;5021336;28;20034;-81
2023/05/23 08:35:34;;;;;;;22.55;14.05;;;17.70;99.90;;;;;;5019999;28;20485;-79
2023/05/23 08:38:03;;;;;;;21.00;12.90;;;18.00;99.90;;;;;;5020223;28;20473;-81
2023/05/23 08:40:31;;;;;;;16.60;12.35;;;18.20;99.90;;;;;;5024656;28;20033;-81
2023/05/23 08:43:05;;;;;;;16.85;12.07;;;17.80;99.90;;;;;;5012005;28;20041;-80
2023/05/23 08:45:33;;;;;;;15.60;11.45;;;17.70;99.90;;;;;;5038586;28;20030;-82
2023/05/23 08:48:00;;;;;;;15.85;11.70;;;17.30;99.90;;;;;;5029821;28;20022;-81
2023/05/23 08:50:28;;;;;;;14.40;11.00;;;17.20;99.90;;;;;;5040381;28;20033;-80
2023/05/23 08:52:55;;;;;;;15.10;11.15;;;17.50;99.90;;;;;;5030641;28;20499;-80
2023/05/23 08:55:29;;;;;;;13.85;9.57;;;18.60;99.90;;;;;;5024767;28;20073;-81
2023/05/23 08:57:59;;;;;;;11.48;8.90;;;19.70;99.90;;;;;;5035290;28;20028;-80
2023/05/23 09:01:47;;;;;;;12.30;9.07;;;20.20;99.90;;;;;;5015976;28;20458;-80
2023/05/23 09:04:14;;;;;;;13.00;8.07;;;20.90;99.90;;;;;;5018073;28;20447;-81
2023/05/23 09:06:55;;;;;;;10.00;7.32;;;21.40;99.90;;;;;;5003897;28;20034;-81
2023/05/23 09:09:21;;;;;;;8.95;7.47;;;21.50;99.90;;;;;;5027616;28;20504;-81
2023/05/23 09:11:48;;;;;;;10.80;8.45;;;21.30;99.90;;;;;;5028150;28;20481;-81
2023/05/23 09:14:16;;;;;;;12.38;8.23;;;20.60;99.90;;;;;;5028062;28;20029;-81
2023/05/23 09:16:47;;;;;;;9.68;6.72;;;20.50;99.90;;;;;;5017970;28;20041;-82
2023/05/23 09:19:14;;;;;;;7.60;6.18;;;20.50;99.90;;;;;;5025260;28;20481;-81
2023/05/23 09:21:45;;;;;;;11.38;6.82;;;20.50;99.90;;;;;;5014990;28;20030;-81
2023/05/23 09:24:21;;;;;;;10.57;5.82;;;20.20;99.90;;;;;;5032679;28;20033;-81
2023/05/23 09:26:47;;;;;;;8.15;5.60;;;20.60;99.90;;;;;;5041014;28;20120;-81
2023/05/23 09:29:19;;;;;;;6.72;5.85;;;20.60;99.90;;;;;;5018176;28;20061;-81
2023/05/23 09:31:45;;;;;;;7.10;5.57;;;20.10;99.90;;;;;;5035028;28;20029;-81
2023/05/23 09:34:11;;;;;;;14.50;11.10;;;20.40;99.90;;;;;;5029267;28;20033;-81
2023/05/23 09:36:42;;;;;;;8.27;5.25;;;20.80;99.90;;;;;;5031860;28;20117;-81
2023/05/23 09:39:10;;;;;;;6.03;5.03;;;21.00;99.90;;;;;;5015138;28;20034;-81
2023/05/23 09:41:36;;;;;;;9.25;6.03;;;20.20;99.90;;;;;;5026029;28;20033;-81
2023/05/23 09:44:07;;;;;;;8.10;6.10;;;19.30;99.90;;;;;;5029461;28;20033;-81
2023/05/23 09:46:36;;;;;;;8.15;6.30;;;18.90;99.90;;;;;;5025773;28;20072;-81
2023/05/23 09:49:15;;;;;;;9.10;5.90;;;18.40;99.90;;;;;;5035650;28;20485;-81
2023/05/23 09:51:41;;;;;;;8.48;5.20;;;18.10;99.90;;;;;;5022766;28;20029;-81
2023/05/23 09:54:07;;;;;;;7.53;6.03;;;18.30;99.90;;;;;;5022958;28;20071;-81
2023/05/23 09:56:34;;;;;;;7.47;5.85;;;18.50;99.90;;;;;;5004038;28;20532;-81
2023/05/23 09:59:02;;;;;;;7.32;5.25;;;18.70;99.90;;;;;;5030259;28;20034;-81
2023/05/23 10:01:30;;;;;;;7.88;6.18;;;18.80;99.90;;;;;;5024017;28;20120;-81
2023/05/23 10:03:58;;;;;;;11.70;8.45;;;18.60;99.90;;;;;;5029147;28;20429;-81
2023/05/23 10:06:39;;;;;;;11.00;8.50;;;18.30;99.90;;;;;;5044251;28;20080;-81
2023/05/23 10:09:14;;;;;;;7.68;6.20;;;18.00;99.90;;;;;;5028648;28;20033;-81
2023/05/23 10:12:04;;;;;;;10.40;6.88;;;17.90;99.90;;;;;;5041929;28;20037;-81
2023/05/23 10:14:32;;;;;;;8.50;6.70;;;18.10;99.90;;;;;;5033653;28;20040;-81
2023/05/23 10:17:17;;;;;;;8.68;7.15;;;18.10;99.90;;;;;;5015947;28;20029;-81
2023/05/23 10:19:51;;;;;;;11.27;7.75;;;18.30;99.90;;;;;;5031217;28;20064;-81
2023/05/23 10:22:18;;;;;;;10.13;7.85;;;18.50;99.90;;;;;;5040879;28;20079;-81
2023/05/23 10:24:45;;;;;;;10.10;8.05;;;18.90;99.90;;;;;;5032866;28;20029;-79
2023/05/23 10:27:11;;;;;;;9.98;7.93;;;19.10;99.90;;;;;;5021437;28;20040;-80
2023/05/23 10:29:37;;;;;;;8.88;7.55;;;19.60;99.90;;;;;;5006074;28;20032;-80
2023/05/23 10:32:05;;;;;;;8.18;7.15;;;20.50;99.90;;;;;;5038756;28;20037;-82
2023/05/23 10:34:39;;;;;;;8.85;7.07;;;21.00;99.90;;;;;;5024810;28;20033;-82
2023/05/23 10:37:06;;;;;;;7.63;6.22;;;20.70;99.90;;;;;;5001033;28;20081;-82
2023/05/23 10:39:38;;;;;;;7.63;6.03;;;20.30;99.90;;;;;;5032016;28;20030;-81
2023/05/23 10:42:16;;;;;;;8.48;7.20;;;19.80;99.90;;;;;;5021171;28;20103;-81
2023/05/23 10:44:41;;;;;;;8.90;7.47;;;19.20;99.90;;;;;;5041902;28;20048;-81
2023/05/23 10:47:29;;;;;;;8.93;6.53;;;18.90;99.90;;;;;;5013517;28;20022;-81
2023/05/23 10:49:55;;;;;;;8.32;6.32;;;18.80;99.90;;;;;;5044213;28;20029;-81
2023/05/23 10:52:25;;;;;;;7.55;6.78;;;19.00;99.90;;;;;;5029583;28;20441;-81
2023/05/23 10:54:57;;;;;;;9.73;7.43;;;19.10;99.90;;;;;;5029424;28;20018;-81
2023/05/23 10:57:28;;;;;;;7.80;5.45;;;19.50;99.90;;;;;;5026899;28;20029;-81
2023/05/23 10:59:54;;;;;;;5.47;4.95;;;19.90;99.90;;;;;;5016525;28;20056;-81
2023/05/23 11:02:27;;;;;;;6.70;5.00;;;20.60;99.90;;;;;;5006440;28;20056;-82
2023/05/23 11:05:21;;;;;;;6.90;5.75;;;20.90;99.90;;;;;;5028982;28;20052;-81
2023/05/23 11:08:09;;;;;;;8.18;5.35;;;20.50;99.90;;;;;;5013329;28;20033;-82
2023/05/23 11:10:57;;;;;;;7.88;6.80;;;20.00;99.90;;;;;;5019609;28;20128;-81
2023/05/23 11:13:24;;;;;;;15.50;11.20;;;19.30;99.90;;;;;;5008779;28;20036;-82
2023/05/23 11:15:50;;;;;;;43.40;25.38;;;18.90;99.90;;;;;;5048361;28;20038;-81
2023/05/23 11:18:20;;;;;;;8.93;6.45;;;18.60;99.90;;;;;;5014437;28;20736;-81
2023/05/23 11:20:46;;;;;;;6.90;6.20;;;18.40;99.90;;;;;;5022061;28;20033;-81
2023/05/23 11:23:12;;;;;;;10.65;7.68;;;18.10;99.90;;;;;;5025540;28;20492;-81
2023/05/23 11:25:43;;;;;;;10.07;7.13;;;18.10;99.90;;;;;;5033023;28;20044;-81
2023/05/23 11:28:10;;;;;;;8.98;6.68;;;18.10;99.90;;;;;;5029261;28;20037;-82
2023/05/23 11:30:36;;;;;;;8.68;5.70;;;18.40;99.90;;;;;;5017584;28;20063;-82
2023/05/23 11:33:15;;;;;;;5.63;4.82;;;18.90;99.90;;;;;;5023152;28;20080;-81
2023/05/23 11:35:42;;;;;;;5.70;4.82;;;19.10;99.90;;;;;;5029328;28;20044;-81
2023/05/23 11:38:08;;;;;;;8.80;5.20;;;19.30;99.90;;;;;;5032771;28;20431;-82
2023/05/23 11:40:37;;;;;;;7.53;4.88;;;19.40;99.90;;;;;;5023795;28;20121;-82
2023/05/23 11:43:23;;;;;;;9.43;6.28;;;19.50;99.90;;;;;;5030721;28;20038;-81
2023/05/23 11:45:48;;;;;;;7.80;6.03;;;18.90;99.90;;;;;;5035159;28;20080;-81
2023/05/23 11:48:15;;;;;;;8.68;7.00;;;18.60;99.90;;;;;;5045950;28;20592;-81
2023/05/23 11:50:46;;;;;;;8.43;7.20;;;18.20;99.90;;;;;;5033317;28;20480;-81
2023/05/23 11:53:16;;;;;;;11.40;7.45;;;18.10;99.90;;;;;;5040054;28;20033;-81
2023/05/23 11:55:48;;;;;;;8.80;6.45;;;17.70;99.90;;;;;;5032790;28;20143;-81
2023/05/23 11:58:14;;;;;;;10.07;6.43;;;17.60;99.90;;;;;;5019839;28;20053;-81
2023/05/23 12:00:48;;;;;;;9.15;6.55;;;17.60;99.90;;;;;;5033001;28;20060;-80
2023/05/23 12:03:14;;;;;;;9.25;6.45;;;17.80;99.90;;;;;;5014519;28;20026;-81
2023/05/23 12:05:43;;;;;;;7.47;5.70;;;17.70;99.90;;;;;;5019868;28;20034;-81
2023/05/23 12:08:11;;;;;;;8.27;6.15;;;17.80;99.90;;;;;;5031213;28;20079;-81
2023/05/23 12:10:47;;;;;;;6.53;5.28;;;17.90;99.90;;;;;;5022942;28;20501;-81
2023/05/23 12:13:13;;;;;;;7.97;6.43;;;18.10;99.90;;;;;;5032266;28;20039;-81
2023/05/23 12:15:38;;;;;;;12.10;6.15;;;18.30;99.90;;;;;;5016554;28;20121;-81
2023/05/23 12:18:05;;;;;;;7.70;5.85;;;18.60;99.90;;;;;;5030871;28;20104;-81
2023/05/23 12:20:34;;;;;;;6.72;5.35;;;18.70;99.90;;;;;;5038783;28;20041;-81
2023/05/23 12:23:03;;;;;;;15.55;5.80;;;18.90;99.90;;;;;;5020070;28;20367;-80
2023/05/23 12:25:36;;;;;;;8.60;4.65;;;19.50;99.90;;;;;;5027286;28;20116;-81
2023/05/23 12:28:02;;;;;;;4.97;4.20;;;20.80;99.90;;;;;;5020589;28;20029;-82
2023/05/23 12:30:28;;;;;;;4.65;4.15;;;22.00;99.90;;;;;;5026606;28;20715;-82
2023/05/23 12:32:54;;;;;;;9.25;4.80;;;22.20;99.90;;;;;;5032410;28;20065;-82
2023/05/23 12:35:20;;;;;;;9.27;4.30;;;22.00;99.90;;;;;;5024070;28;20433;-81
2023/05/23 12:37:46;;;;;;;4.97;4.32;;;21.60;99.90;;;;;;5019535;28;20025;-83
2023/05/23 12:40:16;;;;;;;5.07;4.15;;;21.90;99.90;;;;;;5020004;28;20080;-84
2023/05/23 12:42:53;;;;;;;5.72;4.00;;;22.10;99.90;;;;;;5046256;28;20033;-83
2023/05/23 12:45:37;;;;;;;5.10;4.32;;;21.70;99.90;;;;;;5031707;28;20080;-83